Data Viewer
| City | State | Eastern Time | Source | Temp | DewPt | RH | BP | 5 Min Precip | Wind Speed | Wind Dir | 5 Min Wind Max | 5 Min Wind Max Dir |
|---|---|---|---|---|---|---|---|---|---|---|---|---|
| Doylestown | PA | 2026-05-09 06:45 | ASOS | 54 | 45 | 71 | 29.89 | 3 | SSE | |||
| Doylestown | PA | 2026-05-10 04:05 | ASOS | 50 | 48 | 94 | 29.88 | 7 | NNW | |||
| Doylestown | PA | 2026-05-10 04:45 | ASOS | 50 | 50 | 100 | 29.88 | 5 | NE | |||
| Doylestown | PA | 2026-05-10 04:40 | ASOS | 50 | 50 | 100 | 29.89 | 6 | NNE | |||
| Doylestown | PA | 2026-05-10 04:35 | ASOS | 50 | 50 | 100 | 29.88 | 0 | N | |||
| Doylestown | PA | 2026-05-10 04:30 | ASOS | 50 | 50 | 100 | 29.89 | 7 | N | |||
| Doylestown | PA | 2026-05-10 04:27 | ASOS | 50 | 49 | 96 | 29.89 | 6 | N | |||
| Doylestown | PA | 2026-05-10 04:25 | ASOS | 50 | 48 | 94 | 29.88 | 3 | ENE | |||
| Doylestown | PA | 2026-05-10 04:20 | ASOS | 50 | 48 | 94 | 29.89 | 6 | N | |||
| Doylestown | PA | 2026-05-10 04:19 | ASOS | 50 | 49 | 96 | 29.89 | 6 | N | |||
| Doylestown | PA | 2026-05-10 04:15 | ASOS | 50 | 48 | 94 | 29.88 | 3 | NE | |||
| Doylestown | PA | 2026-05-10 04:10 | ASOS | 50 | 48 | 94 | 29.88 | 6 | NE | |||
| Doylestown | PA | 2026-05-10 04:00 | ASOS | 50 | 48 | 94 | 29.86 | 0 | N | |||
| Doylestown | PA | 2026-05-10 05:00 | ASOS | 50 | 50 | 100 | 29.88 | 3 | NNE | |||
| Doylestown | PA | 2026-05-10 03:55 | ASOS | 50 | 48 | 94 | 29.86 | 3 | NNE | |||
| Doylestown | PA | 2026-05-10 03:54 | ASOS | 50 | 49 | 96 | 29.86 | 3 | NNE | |||
| Doylestown | PA | 2026-05-10 03:50 | ASOS | 50 | 48 | 94 | 29.86 | 0 | N | |||
| Doylestown | PA | 2026-05-10 03:45 | ASOS | 50 | 48 | 94 | 29.86 | 0 | N | |||
| Doylestown | PA | 2026-05-10 03:40 | ASOS | 50 | 48 | 94 | 29.86 | 3 | NE | |||
| Doylestown | PA | 2026-05-10 03:35 | ASOS | 50 | 48 | 94 | 29.86 | 3 | NNE | |||
| Doylestown | PA | 2026-05-10 03:30 | ASOS | 50 | 48 | 94 | 29.86 | 0 | N | |||
| Doylestown | PA | 2026-05-10 03:25 | ASOS | 50 | 48 | 94 | 29.86 | 0 | N | |||
| Doylestown | PA | 2026-05-10 03:20 | ASOS | 50 | 48 | 94 | 29.86 | 3 | NE | |||
| Doylestown | PA | 2026-05-10 03:15 | ASOS | 50 | 48 | 94 | 29.86 | 0 | N | |||
| Doylestown | PA | 2026-05-10 04:54 | ASOS | 50 | 50 | 100 | 29.89 | 5 | NNE | |||
| Doylestown | PA | 2026-05-10 05:04 | ASOS | 50 | 50 | 100 | 29.88 | 5 | NNE | |||
| Doylestown | PA | 2026-05-10 03:05 | ASOS | 50 | 50 | 100 | 29.86 | 5 | NNE | |||
| Doylestown | PA | 2026-05-10 06:00 | ASOS | 52 | 50 | 94 | 29.89 | 0 | N | |||
| Doylestown | PA | 2026-05-10 06:36 | ASOS | 50 | 50 | 100 | 29.89 | 0 | N | |||
| Doylestown | PA | 2026-05-10 06:35 | ASOS | 50 | 50 | 100 | 29.89 | 0 | N | |||
| Doylestown | PA | 2026-05-10 06:30 | ASOS | 50 | 50 | 100 | 29.89 | 0 | N | |||
| Doylestown | PA | 2026-05-10 06:25 | ASOS | 50 | 50 | 100 | 29.89 | 0 | N | |||
| Doylestown | PA | 2026-05-10 06:20 | ASOS | 50 | 50 | 100 | 29.89 | 0 | N | |||
| Doylestown | PA | 2026-05-10 06:17 | ASOS | 50 | 50 | 100 | 29.89 | 0 | N | |||
| Doylestown | PA | 2026-05-10 06:15 | ASOS | 50 | 50 | 100 | 29.89 | 0 | N | |||
| Doylestown | PA | 2026-05-10 06:10 | ASOS | 50 | 50 | 100 | 29.89 | 0 | N | |||
| Doylestown | PA | 2026-05-10 06:05 | ASOS | 50 | 50 | 100 | 29.89 | 0 | N | |||
| Doylestown | PA | 2026-05-10 06:04 | ASOS | 50 | 50 | 100 | 29.89 | 3 | NNE | |||
| Doylestown | PA | 2026-05-10 05:55 | ASOS | 52 | 50 | 94 | 29.88 | 0 | N | |||
| Doylestown | PA | 2026-05-10 05:05 | ASOS | 50 | 50 | 100 | 29.88 | 6 | NNE | |||
| Doylestown | PA | 2026-05-10 05:54 | ASOS | 51 | 50 | 96 | 29.89 | 0 | N | |||
| Doylestown | PA | 2026-05-10 05:50 | ASOS | 52 | 50 | 94 | 29.89 | 0 | N | |||
| Doylestown | PA | 2026-05-10 05:45 | ASOS | 50 | 50 | 100 | 29.89 | 3 | N | |||
| Doylestown | PA | 2026-05-10 05:40 | ASOS | 50 | 50 | 100 | 29.88 | 0 | N | |||
| Doylestown | PA | 2026-05-10 05:35 | ASOS | 50 | 50 | 100 | 29.88 | 5 | NE | |||
| Doylestown | PA | 2026-05-10 05:30 | ASOS | 50 | 50 | 100 | 29.87 | 5 | NE | |||
| Doylestown | PA | 2026-05-10 05:25 | ASOS | 50 | 50 | 100 | 29.87 | 3 | NE | |||
| Doylestown | PA | 2026-05-10 05:20 | ASOS | 52 | 50 | 94 | 29.88 | 0 | N | |||
| Doylestown | PA | 2026-05-10 05:15 | ASOS | 52 | 50 | 94 | 29.88 | 5 | NNE | |||
| Doylestown | PA | 2026-05-10 05:10 | ASOS | 52 | 50 | 94 | 29.88 | 0 | N | |||
| Doylestown | PA | 2026-05-10 03:10 | ASOS | 50 | 48 | 94 | 29.86 | 0 | N | |||
| Doylestown | PA | 2026-05-10 03:00 | ASOS | 50 | 48 | 94 | 29.86 | 3 | NNE | |||
| Doylestown | PA | 2026-05-09 06:50 | ASOS | 54 | 45 | 71 | 29.89 | 3 | SSE | |||
| Doylestown | PA | 2026-05-09 07:54 | ASOS | 54 | 46 | 75 | 29.89 | 0 | N | |||
| Doylestown | PA | 2026-05-09 09:10 | ASOS | 57 | 48 | 72 | 29.87 | 0 | N | |||
| Doylestown | PA | 2026-05-09 09:05 | ASOS | 55 | 48 | 77 | 29.87 | 3 | SSW | |||
| Doylestown | PA | 2026-05-09 08:55 | ASOS | 55 | 48 | 77 | 29.88 | 0 | N | |||
| Doylestown | PA | 2026-05-09 08:54 | ASOS | 56 | 48 | 75 | 29.88 | 0 | N | |||
| Doylestown | PA | 2026-05-09 08:50 | ASOS | 55 | 48 | 77 | 29.88 | 0 | N | |||
| Doylestown | PA | 2026-05-09 08:40 | ASOS | 55 | 48 | 77 | 29.88 | 0 | N | |||
| Doylestown | PA | 2026-05-09 08:25 | ASOS | 55 | 46 | 72 | 29.88 | 3 | SSE | |||
| Doylestown | PA | 2026-05-09 08:20 | ASOS | 55 | 46 | 72 | 29.88 | 3 | SSE | |||
| Doylestown | PA | 2026-05-09 08:15 | ASOS | 55 | 46 | 72 | 29.88 | 3 | SSE | |||
| Doylestown | PA | 2026-05-09 08:05 | ASOS | 54 | 46 | 77 | 29.89 | 0 | N | |||
| Doylestown | PA | 2026-05-09 07:50 | ASOS | 54 | 46 | 77 | 29.89 | 0 | N | |||
| Doylestown | PA | 2026-05-09 09:25 | ASOS | 57 | 48 | 72 | 29.87 | 5 | SSW | |||
| Doylestown | PA | 2026-05-09 07:40 | ASOS | 54 | 46 | 77 | 29.89 | 0 | N | |||
| Doylestown | PA | 2026-05-09 07:35 | ASOS | 54 | 46 | 77 | 29.89 | 0 | N | |||
| Doylestown | PA | 2026-05-09 07:30 | ASOS | 54 | 46 | 77 | 29.88 | 0 | N | |||
| Doylestown | PA | 2026-05-09 07:25 | ASOS | 54 | 46 | 77 | 29.88 | 0 | N | |||
| Doylestown | PA | 2026-05-09 07:20 | ASOS | 54 | 45 | 71 | 29.88 | 3 | SSE | |||
| Doylestown | PA | 2026-05-09 07:15 | ASOS | 54 | 45 | 71 | 29.89 | 0 | N | |||
| Doylestown | PA | 2026-05-09 07:10 | ASOS | 54 | 45 | 71 | 29.89 | 3 | SSE | |||
| Doylestown | PA | 2026-05-09 07:05 | ASOS | 54 | 45 | 71 | 29.89 | 3 | S | |||
| Doylestown | PA | 2026-05-09 07:00 | ASOS | 54 | 45 | 71 | 29.89 | 0 | N | |||
| Doylestown | PA | 2026-05-09 06:54 | ASOS | 53 | 45 | 74 | 29.89 | 3 | SSE | |||
| Doylestown | PA | 2026-05-09 09:15 | ASOS | 57 | 48 | 72 | 29.86 | 5 | S | |||
| Doylestown | PA | 2026-05-09 09:40 | ASOS | 59 | 50 | 72 | 29.87 | 6 | S | |||
| Doylestown | PA | 2026-05-10 02:55 | ASOS | 50 | 50 | 100 | 29.86 | 6 | NNE | |||
| Doylestown | PA | 2026-05-09 22:13 | ASOS | 50 | 50 | 100 | 29.86 | 0 | N | |||
| Doylestown | PA | 2026-05-10 02:50 | ASOS | 50 | 50 | 100 | 29.87 | 6 | NNE | |||
| Doylestown | PA | 2026-05-10 02:45 | ASOS | 50 | 50 | 100 | 29.86 | 6 | NNE | |||
| Doylestown | PA | 2026-05-10 02:40 | ASOS | 50 | 50 | 100 | 29.86 | 5 | NNE | |||
| Doylestown | PA | 2026-05-10 02:35 | ASOS | 50 | 50 | 100 | 29.86 | 6 | N | |||
| Doylestown | PA | 2026-05-10 02:30 | ASOS | 52 | 50 | 94 | 29.86 | 6 | N | |||
| Doylestown | PA | 2026-05-10 02:25 | ASOS | 50 | 50 | 100 | 29.85 | 5 | NNE | |||
| Doylestown | PA | 2026-05-10 02:24 | ASOS | 50 | 50 | 100 | 29.85 | 3 | NNE | |||
| Doylestown | PA | 2026-05-10 02:20 | ASOS | 50 | 50 | 100 | 29.85 | 0 | N | |||
| Doylestown | PA | 2026-05-10 02:15 | ASOS | 50 | 50 | 100 | 29.85 | 0 | N | |||
| Doylestown | PA | 2026-05-09 22:23 | ASOS | 50 | 50 | 100 | 29.86 | 3 | NE | |||
| Doylestown | PA | 2026-05-09 22:05 | ASOS | 51 | 50 | 96 | 29.86 | 0 | N | |||
| Doylestown | PA | 2026-05-09 09:50 | ASOS | 61 | 50 | 68 | 29.87 | 7 | SSW | |||
| Doylestown | PA | 2026-05-09 17:13 | ASOS | 56 | 53 | 90 | 29.83 | 0 | N | |||
| Doylestown | PA | 2026-05-09 14:50 | ASOS | 55 | 54 | 94 | 29.86 | 3 | N | |||
| Doylestown | PA | 2026-05-09 11:15 | ASOS | 63 | 48 | 59 | 29.88 | 9 | SW | |||
| Doylestown | PA | 2026-05-09 11:05 | ASOS | 63 | 50 | 63 | 29.88 | 9 | SW | |||
| Doylestown | PA | 2026-05-09 11:00 | ASOS | 61 | 48 | 63 | 29.87 | 7 | SW | |||
| Doylestown | PA | 2026-05-09 10:50 | ASOS | 61 | 48 | 63 | 29.87 | 7 | SW | |||
| Doylestown | PA | 2026-05-09 10:40 | ASOS | 61 | 50 | 68 | 29.87 | 7 | SW | |||
| Doylestown | PA | 2026-05-09 10:25 | ASOS | 61 | 50 | 68 | 29.87 | 8 | SW | |||
| Doylestown | PA | 2026-05-09 10:15 | ASOS | 61 | 50 | 68 | 29.87 | 7 | SSW | |||
| Doylestown | PA | 2026-05-09 10:05 | ASOS | 61 | 50 | 68 | 29.87 | 8 | SW | |||
| Doylestown | PA | 2026-05-10 06:40 | ASOS | 50 | 50 | 100 | 29.90 | 3 | NE |
data collection created in 0.016141176223755 (queried in 0.003262) rendered in: 0.00014591217041016

